Time;durP1;ratioP1;P1;durP2;ratioP2;P2;SDS_P1;SDS_P2;PMS_P1;PMS_P2;Temp;Humidity;BMP_temperature;BMP_pressure;BME280_temperature;BME280_humidity;BME280_pressure;Samples;Min_cycle;Max_cycle;Signal;HPM_P1;HPM_P2
2022/07/03 00:02:27;;;;;;;8.05;2.15;;;;;;;16.57;65.44;99763.78;4947348;28;20397;-66
2022/07/03 00:04:54;;;;;;;6.18;2.65;;;;;;;16.57;65.40;99757.63;4946390;28;20057;-67
2022/07/03 00:07:20;;;;;;;6.00;2.22;;;;;;;16.55;65.36;99763.06;4944865;28;20051;-67
2022/07/03 00:09:47;;;;;;;3.55;2.67;;;;;;;16.53;65.67;99760.50;4946108;28;20047;-65
2022/07/03 00:12:14;;;;;;;6.28;2.58;;;;;;;16.51;66.08;99756.25;4948409;28;20065;-67
2022/07/03 00:14:40;;;;;;;4.78;2.92;;;;;;;16.48;65.80;99754.66;4947777;28;20454;-66
2022/07/03 00:17:07;;;;;;;5.22;2.53;;;;;;;16.44;66.21;99753.22;4947184;28;20050;-68
2022/07/03 00:19:35;;;;;;;4.10;2.20;;;;;;;16.37;67.27;99744.00;4946705;28;20055;-66
2022/07/03 00:22:05;;;;;;;9.57;2.72;;;;;;;16.35;66.79;99747.72;4946302;28;20058;-66
2022/07/03 00:24:38;;;;;;;4.95;2.35;;;;;;;16.33;66.65;99746.97;4947543;28;20051;-66
2022/07/03 00:27:09;;;;;;;5.88;2.60;;;;;;;16.27;67.02;99746.47;4949134;28;20039;-66
2022/07/03 00:29:38;;;;;;;5.03;2.13;;;;;;;16.19;67.02;99746.16;4947244;28;20051;-67
2022/07/03 00:32:09;;;;;;;4.72;2.00;;;;;;;16.15;67.55;99739.41;4961561;28;20134;-67
2022/07/03 00:34:38;;;;;;;2.67;1.77;;;;;;;16.08;67.70;99736.31;4953052;28;20124;-66
2022/07/03 00:37:07;;;;;;;5.63;2.33;;;;;;;15.99;67.67;99741.47;4964002;28;20078;-66
2022/07/03 00:39:37;;;;;;;3.63;2.10;;;;;;;15.91;68.00;99730.53;4964506;28;20134;-66
2022/07/03 00:42:05;;;;;;;5.43;2.30;;;;;;;15.86;68.06;99729.06;4964230;28;20062;-66
2022/07/03 00:44:34;;;;;;;4.43;2.55;;;;;;;15.82;68.32;99716.94;4965231;28;20058;-67
2022/07/03 00:47:04;;;;;;;4.05;1.95;;;;;;;15.80;68.21;99713.56;4964239;28;20054;-66
2022/07/03 00:49:33;;;;;;;8.38;2.60;;;;;;;15.80;68.34;99715.34;4963680;28;20062;-67
2022/07/03 00:52:04;;;;;;;4.68;2.08;;;;;;;15.76;68.60;99714.72;4963605;28;20925;-66
2022/07/03 00:54:34;;;;;;;6.78;2.85;;;;;;;15.71;68.84;99719.53;4964081;28;20050;-66
2022/07/03 00:57:01;;;;;;;3.22;2.03;;;;;;;15.69;68.70;99721.41;4963442;28;20768;-66
2022/07/03 00:59:28;;;;;;;3.63;2.03;;;;;;;15.71;68.56;99724.00;4962995;28;20059;-66
2022/07/03 01:02:02;;;;;;;6.82;2.22;;;;;;;15.72;68.48;99723.88;4958210;28;20055;-66
2022/07/03 01:04:40;;;;;;;6.10;2.55;;;;;;;15.74;68.52;99718.47;4964087;28;20062;-66
2022/07/03 01:07:22;;;;;;;5.78;1.85;;;;;;;15.75;68.31;99718.34;4963388;28;20101;-65
2022/07/03 01:09:56;;;;;;;6.10;2.15;;;;;;;15.71;67.83;99721.34;4963456;28;20046;-66
2022/07/03 01:12:28;;;;;;;4.03;1.77;;;;;;;15.72;67.94;99715.06;4963419;28;20073;-65
2022/07/03 01:15:04;;;;;;;6.60;2.97;;;;;;;15.77;67.87;99716.41;4964219;28;20146;-65
2022/07/03 01:17:35;;;;;;;4.75;2.13;;;;;;;15.79;67.95;99713.66;4963589;28;20055;-67
2022/07/03 01:20:04;;;;;;;3.20;2.20;;;;;;;15.79;67.63;99711.00;4963635;28;20055;-67
2022/07/03 01:22:35;;;;;;;4.90;2.00;;;;;;;15.78;67.81;99699.53;4963404;28;20074;-65
2022/07/03 01:25:14;;;;;;;5.75;2.40;;;;;;;15.77;68.14;99708.44;4963677;28;20050;-66
2022/07/03 01:27:55;;;;;;;4.05;2.67;;;;;;;15.75;67.74;99706.84;4954622;28;20170;-66
2022/07/03 01:30:23;;;;;;;6.20;2.47;;;;;;;15.74;67.86;99711.31;4963582;28;20137;-66
2022/07/03 01:32:59;;;;;;;5.00;2.13;;;;;;;15.72;67.85;99704.44;4950086;28;20047;-66
2022/07/03 01:35:28;;;;;;;;;;;;;;;15.67;68.54;99710.88;4944703;28;20118;-66
2022/07/03 01:37:56;;;;;;;3.92;2.08;;;;;;;15.62;68.48;99707.69;4946975;29;19926;-66
2022/07/03 01:40:27;;;;;;;4.88;2.17;;;;;;;15.57;68.80;99707.19;4948147;29;20066;-65
2022/07/03 01:42:57;;;;;;;4.35;2.45;;;;;;;15.57;68.72;99715.16;4948370;29;20055;-66
2022/07/03 01:45:25;;;;;;;2.85;1.92;;;;;;;15.56;68.59;99708.16;4949285;28;20069;-66
2022/07/03 01:47:53;;;;;;;5.78;2.38;;;;;;;15.56;68.45;99707.31;4966465;28;20550;-67
2022/07/03 01:50:22;;;;;;;5.07;2.28;;;;;;;15.54;68.67;99711.88;4966256;28;20057;-66
2022/07/03 01:52:49;;;;;;;3.70;2.03;;;;;;;15.53;68.52;99705.72;4966746;28;20129;-66
2022/07/03 01:55:16;;;;;;;3.20;1.75;;;;;;;15.51;68.45;99704.97;4966868;28;20050;-66
2022/07/03 01:57:45;;;;;;;7.25;2.63;;;;;;;15.50;68.74;99699.75;4966524;28;20061;-66
2022/07/03 02:00:16;;;;;;;2.45;1.83;;;;;;;15.47;68.40;99695.50;4966761;28;20070;-66
2022/07/03 02:02:47;;;;;;;3.28;2.00;;;;;;;15.44;69.00;99701.91;4966867;28;20047;-66
2022/07/03 02:05:27;;;;;;;6.60;2.08;;;;;;;15.44;69.18;99698.41;4966586;28;20074;-67
2022/07/03 02:08:07;;;;;;;4.35;2.00;;;;;;;15.45;68.54;99692.13;4966016;28;20050;-66
2022/07/03 02:10:39;;;;;;;4.38;2.08;;;;;;;15.42;68.63;99697.66;4966578;28;20141;-66
2022/07/03 02:13:10;;;;;;;8.50;1.90;;;;;;;15.39;69.19;99692.56;4966888;28;20054;-66
2022/07/03 02:15:43;;;;;;;2.95;1.63;;;;;;;15.36;68.73;99685.66;4966643;28;20069;-67
2022/07/03 02:18:18;;;;;;;8.57;2.03;;;;;;;15.35;68.75;99681.28;4966096;28;20411;-66
2022/07/03 02:20:51;;;;;;;2.33;1.88;;;;;;;15.35;68.66;99683.09;4966631;28;20549;-66
2022/07/03 02:23:24;;;;;;;5.97;3.08;;;;;;;15.33;68.47;99685.84;4965913;28;20050;-65
2022/07/03 02:25:55;;;;;;;3.35;2.08;;;;;;;15.32;68.22;99681.50;4966481;28;20053;-66
2022/07/03 02:28:31;;;;;;;3.33;1.90;;;;;;;15.32;68.25;99684.16;4958135;28;20065;-66
2022/07/03 02:31:03;;;;;;;2.63;2.05;;;;;;;15.35;68.29;99683.94;4947728;28;20459;-67
2022/07/03 02:33:31;;;;;;;4.53;2.00;;;;;;;15.37;67.95;99692.66;4947241;28;20055;-66
2022/07/03 02:35:59;;;;;;;2.75;1.80;;;;;;;15.37;67.91;99687.34;4947389;29;20524;-67
2022/07/03 02:38:27;;;;;;;3.10;1.98;;;;;;;15.36;67.83;99685.66;4954681;29;20074;-66
2022/07/03 02:41:02;;;;;;;3.33;1.70;;;;;;;15.37;67.43;99679.38;4955187;29;20058;-66
2022/07/03 02:43:37;;;;;;;3.10;1.92;;;;;;;15.40;67.39;99683.63;4971818;28;20046;-65
2022/07/03 02:48:52;;;;;;;5.47;1.80;;;;;;;15.37;67.49;99690.00;4970966;28;20115;-65
2022/07/03 02:51:23;;;;;;;4.50;2.00;;;;;;;15.37;67.16;99690.00;4972635;28;20054;-65
2022/07/03 02:53:58;;;;;;;5.05;1.98;;;;;;;15.42;67.13;99695.00;4971126;28;20054;-66
2022/07/03 02:56:35;;;;;;;4.53;2.30;;;;;;;15.46;67.24;99689.34;4970511;28;20650;-66
2022/07/03 02:59:14;;;;;;;5.32;2.10;;;;;;;15.50;66.92;99694.44;4966222;28;20054;-66
2022/07/03 03:01:49;;;;;;;4.07;1.92;;;;;;;15.52;66.68;99689.88;4967286;28;20451;-65
2022/07/03 03:04:22;;;;;;;4.25;2.10;;;;;;;15.52;66.53;99701.34;4967312;28;20058;-66
2022/07/03 03:07:08;;;;;;;3.58;1.85;;;;;;;15.53;66.46;99699.53;4966920;28;20434;-67
2022/07/03 03:09:42;;;;;;;3.78;1.95;;;;;;;15.52;66.38;99701.34;4966902;28;20050;-65
2022/07/03 03:12:10;;;;;;;2.70;1.60;;;;;;;15.51;66.66;99697.00;4966231;28;20047;-66
2022/07/03 03:14:41;;;;;;;2.53;1.90;;;;;;;15.49;66.67;99695.41;4966159;28;20654;-66
2022/07/03 03:17:14;;;;;;;2.97;2.00;;;;;;;15.47;66.92;99692.84;4965378;28;20051;-66
2022/07/03 03:19:42;;;;;;;4.00;1.90;;;;;;;15.46;67.09;99704.47;4965176;28;20053;-65
2022/07/03 03:22:32;;;;;;;6.43;2.42;;;;;;;15.50;67.16;99721.84;4965750;28;20105;-66
2022/07/03 03:24:59;;;;;;;4.75;2.67;;;;;;;15.53;67.29;99719.00;4955626;28;20507;-66
2022/07/03 03:27:26;;;;;;;3.63;1.95;;;;;;;15.56;67.48;99717.94;4946364;28;20062;-67
2022/07/03 03:29:53;;;;;;;4.68;2.10;;;;;;;15.55;67.58;99727.69;4946301;28;20051;-66
2022/07/03 03:32:22;;;;;;;4.03;2.67;;;;;;;15.59;67.58;99739.81;4946104;28;20057;-65
2022/07/03 03:34:50;;;;;;;5.15;3.25;;;;;;;15.50;67.53;99719.19;4945723;28;20051;-65
2022/07/03 03:37:16;;;;;;;3.40;2.00;;;;;;;15.53;68.06;99728.75;4945152;29;20051;-65
2022/07/03 03:39:44;;;;;;;3.22;1.95;;;;;;;15.63;67.79;99737.81;4961556;28;20051;-65
2022/07/03 03:42:10;;;;;;;3.88;1.98;;;;;;;15.63;67.82;99732.50;4965274;28;20505;-65
2022/07/03 03:44:37;;;;;;;5.68;2.42;;;;;;;15.60;68.43;99730.03;4965542;28;20050;-64
2022/07/03 03:47:04;;;;;;;6.07;2.58;;;;;;;15.58;68.19;99727.50;4964515;28;20047;-65
2022/07/03 03:49:32;;;;;;;3.60;2.28;;;;;;;15.59;68.18;99742.47;4965057;28;20065;-65
2022/07/03 03:51:58;;;;;;;3.72;1.83;;;;;;;15.61;68.12;99740.56;4965145;28;20060;-65
2022/07/03 03:54:25;;;;;;;4.80;1.90;;;;;;;15.61;68.19;99747.69;4964961;28;20104;-65
2022/07/03 03:56:52;;;;;;;6.43;2.00;;;;;;;15.55;68.34;99740.97;4965000;28;20050;-65
2022/07/03 03:59:18;;;;;;;4.95;1.70;;;;;;;15.53;68.34;99744.72;4963572;28;20054;-65
2022/07/03 04:01:46;;;;;;;3.45;1.88;;;;;;;15.46;68.85;99739.84;4964875;28;20057;-67
2022/07/03 04:04:17;;;;;;;5.45;2.08;;;;;;;15.46;68.58;99755.78;4964840;28;20055;-65
2022/07/03 04:06:45;;;;;;;4.97;2.80;;;;;;;15.44;68.73;99757.69;4965106;28;20047;-65
2022/07/03 04:09:11;;;;;;;3.33;2.28;;;;;;;15.51;68.54;99758.13;4963637;28;20059;-65
2022/07/03 04:11:38;;;;;;;4.15;2.05;;;;;;;15.56;68.44;99749.81;4964720;28;20137;-67
2022/07/03 04:14:04;;;;;;;4.22;1.60;;;;;;;15.50;68.12;99753.75;4964432;28;20051;-67
2022/07/03 04:16:31;;;;;;;4.38;2.78;;;;;;;15.47;68.75;99751.31;4964304;28;20062;-66
2022/07/03 04:18:57;;;;;;;2.38;1.77;;;;;;;15.49;68.42;99741.44;4963730;28;20050;-65
2022/07/03 04:21:24;;;;;;;5.90;2.15;;;;;;;15.56;67.92;99747.16;4952665;28;20538;-65
2022/07/03 04:23:52;;;;;;;2.80;2.05;;;;;;;15.64;67.78;99756.28;4945321;28;20055;-65
2022/07/03 04:26:19;;;;;;;4.80;1.95;;;;;;;15.74;67.03;99758.31;4945146;28;20051;-65
2022/07/03 04:28:46;;;;;;;4.53;2.33;;;;;;;15.85;67.05;99764.59;4944688;28;20744;-65
2022/07/03 04:31:12;;;;;;;3.28;2.53;;;;;;;15.95;66.80;99778.06;4945655;28;20051;-66
2022/07/03 04:33:39;;;;;;;5.50;2.78;;;;;;;16.04;66.68;99776.53;4945718;28;20047;-65
2022/07/03 04:36:06;;;;;;;5.35;2.33;;;;;;;16.11;66.51;99767.16;4961493;28;20047;-65
2022/07/03 04:38:33;;;;;;;7.30;2.83;;;;;;;16.19;66.92;99771.91;4963250;28;20046;-65
2022/07/03 04:41:01;;;;;;;3.72;2.63;;;;;;;16.26;66.35;99771.34;4964018;28;20047;-66
2022/07/03 04:43:27;;;;;;;5.97;2.75;;;;;;;16.33;66.27;99777.09;4964373;28;20054;-66
2022/07/03 04:45:54;;;;;;;7.32;3.00;;;;;;;16.38;66.17;99777.59;4964497;28;20050;-66
2022/07/03 04:48:21;;;;;;;4.38;2.40;;;;;;;16.37;66.11;99775.91;4963627;28;20059;-65
2022/07/03 04:50:47;;;;;;;4.05;2.20;;;;;;;16.36;65.91;99781.34;4964302;28;20055;-64
2022/07/03 04:53:14;;;;;;;4.45;2.38;;;;;;;16.36;65.91;99786.66;4963973;28;20178;-65
2022/07/03 04:55:40;;;;;;;4.10;2.22;;;;;;;16.38;66.06;99790.06;4964177;28;20061;-65
2022/07/03 04:58:08;;;;;;;5.78;2.30;;;;;;;16.38;65.75;99780.25;4964204;28;20070;-66
2022/07/03 05:00:35;;;;;;;3.28;2.30;;;;;;;16.41;65.45;99790.66;4963516;28;20059;-65
2022/07/03 05:03:01;;;;;;;7.00;2.20;;;;;;;16.44;65.83;99789.59;4964006;28;20054;-66
2022/07/03 05:05:29;;;;;;;2.92;1.77;;;;;;;16.47;65.40;99792.91;4963904;28;20059;-66
2022/07/03 05:07:55;;;;;;;4.47;1.95;;;;;;;16.52;65.60;99800.53;4963451;28;20051;-66
2022/07/03 05:10:22;;;;;;;4.05;2.78;;;;;;;16.60;65.31;99803.47;4964411;28;20328;-66
2022/07/03 05:12:48;;;;;;;6.30;2.42;;;;;;;16.68;65.43;99802.91;4967315;28;20050;-66
2022/07/03 05:15:16;;;;;;;4.05;2.40;;;;;;;16.77;65.14;99807.56;4967255;28;20605;-66
2022/07/03 05:17:43;;;;;;;8.15;2.75;;;;;;;16.87;64.49;99816.56;4966014;28;20050;-66
2022/07/03 05:20:28;;;;;;;5.20;2.80;;;;;;;16.94;64.86;99811.66;4967772;28;20074;-65
2022/07/03 05:22:55;;;;;;;8.93;2.67;;;;;;;16.98;64.75;99814.91;4967440;28;20050;-66
2022/07/03 05:25:21;;;;;;;7.78;3.15;;;;;;;17.00;64.59;99808.50;4967218;28;20053;-65
2022/07/03 05:27:50;;;;;;;8.82;3.22;;;;;;;17.03;64.15;99813.63;4966732;28;20698;-66
2022/07/03 05:30:18;;;;;;;10.27;4.85;;;;;;;17.07;63.97;99815.06;4967464;28;20085;-67
2022/07/03 05:32:45;;;;;;;4.93;2.63;;;;;;;17.10;64.02;99814.00;4968574;28;20395;-65
2022/07/03 05:35:12;;;;;;;4.15;2.70;;;;;;;17.17;63.47;99813.41;4955428;28;20067;-66
2022/07/03 05:37:38;;;;;;;7.05;3.47;;;;;;;17.26;63.29;99811.88;4947719;28;20051;-65
2022/07/03 05:40:05;;;;;;;6.32;2.97;;;;;;;17.43;62.80;99810.56;4947893;28;20051;-66
2022/07/03 05:42:32;;;;;;;4.65;3.05;;;;;;;17.52;62.50;99809.00;4966969;28;20058;-65
2022/07/03 05:44:59;;;;;;;4.13;2.80;;;;;;;17.63;61.81;99811.69;4967339;28;20141;-65
2022/07/03 05:47:27;;;;;;;5.82;3.30;;;;;;;17.65;61.71;99812.41;4966878;28;20130;-65
2022/07/03 05:49:54;;;;;;;5.45;3.22;;;;;;;17.70;61.50;99818.25;4967722;28;20047;-66
2022/07/03 05:52:20;;;;;;;7.38;2.85;;;;;;;17.81;61.40;99809.41;4967356;28;20070;-66
2022/07/03 05:54:47;;;;;;;5.80;2.85;;;;;;;18.05;61.02;99819.97;4967457;28;20050;-66
2022/07/03 05:57:14;;;;;;;7.80;2.70;;;;;;;18.45;59.70;99819.41;4967128;28;20197;-65
2022/07/03 05:59:40;;;;;;;6.03;3.28;;;;;;;18.72;58.22;99821.63;4967365;28;20506;-65
2022/07/03 06:02:08;;;;;;;7.00;3.17;;;;;;;18.85;57.57;99822.34;4967327;28;20149;-65
2022/07/03 06:04:36;;;;;;;8.43;3.67;;;;;;;18.84;56.74;99820.66;4967742;28;20158;-65
2022/07/03 06:07:02;;;;;;;5.95;3.42;;;;;;;18.87;56.32;99828.41;4967557;28;20066;-66
2022/07/03 06:09:29;;;;;;;5.47;3.05;;;;;;;18.82;54.71;99824.41;4966126;28;20050;-67
2022/07/03 06:11:55;;;;;;;4.65;3.13;;;;;;;18.74;54.44;99825.03;4966336;28;20510;-66
2022/07/03 06:14:22;;;;;;;4.45;2.78;;;;;;;18.74;54.69;99819.69;4950806;28;20055;-65
2022/07/03 06:16:49;;;;;;;7.05;3.08;;;;;;;18.80;54.52;99823.69;4947113;28;20778;-64
2022/07/03 06:19:15;;;;;;;9.13;3.63;;;;;;;18.81;54.20;99825.41;4946823;28;20425;-66
2022/07/03 06:21:44;;;;;;;6.25;2.88;;;;;;;18.84;54.06;99827.81;4946561;28;20513;-66
2022/07/03 06:24:11;;;;;;;6.43;2.63;;;;;;;18.88;53.86;99818.59;4947268;28;20206;-67
2022/07/03 06:26:38;;;;;;;5.88;3.28;;;;;;;18.88;53.93;99824.78;4947107;28;20503;-65
2022/07/03 06:29:04;;;;;;;6.07;3.00;;;;;;;18.89;53.61;99817.59;4946136;28;20054;-64
2022/07/03 06:31:31;;;;;;;7.32;2.97;;;;;;;18.97;53.61;99815.13;4947092;28;20151;-66
2022/07/03 06:33:58;;;;;;;8.00;3.50;;;;;;;19.01;53.64;99813.91;4947007;28;20043;-66
2022/07/03 06:36:24;;;;;;;8.07;3.10;;;;;;;19.04;53.77;99812.78;4947279;29;20051;-66
2022/07/03 06:38:52;;;;;;;6.25;3.28;;;;;;;19.15;54.42;99815.41;4946423;29;20051;-66
2022/07/03 06:41:19;;;;;;;3.75;2.83;;;;;;;19.23;54.48;99817.44;4952800;28;20066;-66
2022/07/03 06:43:45;;;;;;;5.95;3.15;;;;;;;19.39;54.70;99809.78;4966347;28;20058;-64
2022/07/03 06:46:12;;;;;;;8.02;2.83;;;;;;;19.54;54.37;99820.97;4966256;28;20060;-66
2022/07/03 06:48:39;;;;;;;7.93;3.17;;;;;;;19.73;52.93;99818.44;4966319;28;20581;-66
2022/07/03 06:51:05;;;;;;;5.90;2.80;;;;;;;19.82;52.97;99815.97;4966085;28;20514;-64
2022/07/03 06:53:32;;;;;;;5.35;2.83;;;;;;;19.85;52.74;99813.03;4965868;28;20141;-66
2022/07/03 06:56:00;;;;;;;9.07;2.97;;;;;;;19.81;52.79;99812.44;4965490;28;20087;-66
2022/07/03 06:58:26;;;;;;;8.27;3.20;;;;;;;19.84;53.17;99808.66;4965592;28;20057;-65
2022/07/03 07:00:53;;;;;;;6.30;2.58;;;;;;;19.89;51.85;99814.47;4964583;28;20043;-67
2022/07/03 07:03:19;;;;;;;4.93;2.88;;;;;;;19.92;52.62;99815.03;4966048;28;20054;-65
2022/07/03 07:05:46;;;;;;;6.53;3.50;;;;;;;19.94;52.07;99815.75;4965615;28;20058;-65
2022/07/03 07:08:13;;;;;;;9.52;3.40;;;;;;;19.86;52.69;99812.91;4965091;28;20054;-65
2022/07/03 07:10:39;;;;;;;6.07;2.83;;;;;;;19.82;52.86;99813.28;4949903;28;20055;-66
2022/07/03 07:13:07;;;;;;;7.18;3.35;;;;;;;19.91;52.54;99809.78;4955180;28;20770;-64
2022/07/03 07:15:34;;;;;;;6.10;2.55;;;;;;;20.02;52.61;99812.38;4965779;28;20144;-66
2022/07/03 07:18:01;;;;;;;7.38;2.80;;;;;;;20.15;52.07;99812.13;4964604;28;20059;-66
2022/07/03 07:20:27;;;;;;;5.13;2.85;;;;;;;20.25;51.77;99814.84;4965205;28;20514;-65
2022/07/03 07:22:54;;;;;;;8.27;3.45;;;;;;;20.35;51.64;99819.25;4965646;28;20635;-65
2022/07/03 07:25:21;;;;;;;4.55;2.53;;;;;;;20.49;51.03;99814.47;4964706;28;20134;-66
2022/07/03 07:27:48;;;;;;;5.50;2.65;;;;;;;20.62;50.79;99825.78;4963982;28;20050;-67
2022/07/03 07:30:16;;;;;;;9.85;2.60;;;;;;;20.79;50.14;99818.91;4965440;28;20069;-65
2022/07/03 07:32:42;;;;;;;3.47;2.28;;;;;;;21.07;49.60;99819.91;4964073;28;20435;-67
2022/07/03 07:35:09;;;;;;;5.97;2.80;;;;;;;21.26;49.32;99821.69;4953412;28;20047;-67
2022/07/03 07:37:36;;;;;;;6.80;2.58;;;;;;;21.35;48.91;99818.16;4944965;28;20047;-66
2022/07/03 07:40:03;;;;;;;8.15;2.85;;;;;;;21.65;47.41;99809.09;4945676;28;20058;-65
2022/07/03 07:42:30;;;;;;;8.57;3.20;;;;;;;21.84;46.87;99812.72;4945439;28;20149;-66
2022/07/03 07:44:56;;;;;;;4.78;2.83;;;;;;;22.18;46.42;99807.59;4945918;28;20133;-66
2022/07/03 07:47:24;;;;;;;4.82;2.25;;;;;;;22.35;45.39;99802.44;4945308;28;20613;-67
2022/07/03 07:49:51;;;;;;;6.40;2.35;;;;;;;22.51;44.87;99795.41;4945815;28;20053;-66
2022/07/03 07:52:17;;;;;;;6.05;2.50;;;;;;;22.53;44.78;99802.47;4945630;28;20073;-66
2022/07/03 07:54:44;;;;;;;6.10;2.30;;;;;;;22.53;44.43;99797.94;4945506;28;20134;-66
2022/07/03 07:57:11;;;;;;;9.65;2.63;;;;;;;22.53;44.31;99797.94;4945909;28;20047;-66
2022/07/03 07:59:37;;;;;;;15.05;2.75;;;;;;;22.40;44.08;99806.38;4944754;28;20071;-66
2022/07/03 08:07:34;;;;;;;8.05;2.58;;;;;;;22.45;43.43;99801.38;4945772;29;20066;-67
2022/07/03 08:10:01;;;;;;;6.75;2.80;;;;;;;22.37;44.33;99795.06;4948905;28;20127;-65
2022/07/03 08:12:27;;;;;;;8.13;2.75;;;;;;;22.40;44.72;99798.31;4969937;28;20137;-66
2022/07/03 08:14:54;;;;;;;4.97;2.55;;;;;;;22.56;44.59;99794.94;4969503;28;20113;-65
2022/07/03 08:17:21;;;;;;;4.65;2.58;;;;;;;22.54;44.42;99796.09;4964875;28;20154;-65
2022/07/03 08:19:47;;;;;;;5.15;2.58;;;;;;;22.59;44.83;99797.31;4964089;28;20050;-47
2022/07/03 08:22:15;;;;;;;4.90;2.40;;;;;;;22.68;45.67;99799.09;4964458;28;20050;-52
2022/07/03 08:24:42;;;;;;;4.70;2.70;;;;;;;22.87;44.61;99792.72;4964267;28;20046;-50
2022/07/03 08:27:08;;;;;;;5.20;2.75;;;;;;;22.94;44.45;99803.72;4964800;28;20046;-52
2022/07/03 08:29:35;;;;;;;4.65;2.67;;;;;;;22.93;44.49;99810.06;4965950;28;20061;-49
2022/07/03 08:32:02;;;;;;;7.47;2.38;;;;;;;23.02;44.01;99801.13;4964814;28;20059;-49
2022/07/03 08:34:28;;;;;;;3.70;2.15;;;;;;;23.08;43.83;99802.34;4954561;28;20055;-52
2022/07/03 08:36:55;;;;;;;5.57;2.08;;;;;;;23.14;43.88;99807.94;4947411;29;20053;-49
2022/07/03 08:39:23;;;;;;;5.18;2.90;;;;;;;23.19;43.43;99804.78;4946461;29;20053;-50
2022/07/03 08:41:53;;;;;;;6.65;2.75;;;;;;;23.18;43.28;99804.94;4947239;29;20782;-51
2022/07/03 08:44:21;;;;;;;3.22;1.73;;;;;;;22.99;44.44;99808.63;4947383;29;20051;-45
2022/07/03 08:46:51;;;;;;;10.18;3.42;;;;;;;23.09;44.28;99812.09;4961264;28;20160;-52
2022/07/03 08:49:19;;;;;;;4.65;2.25;;;;;;;23.26;44.99;99805.84;4976245;28;20054;-52
2022/07/03 08:51:46;;;;;;;5.13;2.20;;;;;;;23.00;44.31;99800.44;4974021;28;20053;-51
2022/07/03 08:54:13;;;;;;;7.28;2.40;;;;;;;22.96;44.66;99798.16;4971209;28;20058;-48
2022/07/03 08:56:43;;;;;;;5.28;2.42;;;;;;;23.32;44.17;99799.81;4971565;28;20054;-50
2022/07/03 08:59:10;;;;;;;7.03;2.45;;;;;;;23.68;43.71;99807.81;4970168;28;20047;-48
2022/07/03 09:01:41;;;;;;;8.50;2.40;;;;;;;23.92;42.87;99806.25;4967182;28;20150;-52
2022/07/03 09:04:11;;;;;;;4.22;2.20;;;;;;;24.40;41.50;99800.22;4952010;28;20051;-50
2022/07/03 09:06:39;;;;;;;4.38;2.35;;;;;;;25.05;40.55;99799.47;4952685;28;20130;-51
2022/07/03 09:09:07;;;;;;;8.52;2.83;;;;;;;25.17;40.04;99800.03;4950971;28;20055;-51
2022/07/03 09:11:34;;;;;;;4.65;2.30;;;;;;;25.34;40.22;99797.31;4969980;28;20051;-45
2022/07/03 09:14:06;;;;;;;6.45;2.70;;;;;;;25.52;39.23;99791.72;4971007;28;20061;-47
2022/07/03 09:16:32;;;;;;;5.72;3.47;;;;;;;25.37;39.56;99797.81;4971324;28;20049;-47
2022/07/03 09:18:59;;;;;;;3.75;2.60;;;;;;;25.60;38.69;99800.66;4970150;28;20737;-48
2022/07/03 09:21:26;;;;;;;5.30;2.72;;;;;;;25.78;38.58;99799.59;4970733;28;20061;-66
2022/07/03 09:23:52;;;;;;;6.45;2.70;;;;;;;26.01;38.69;99799.69;4959472;28;20458;-67
2022/07/03 09:26:25;;;;;;;4.25;2.47;;;;;;;26.45;38.30;99804.53;4970680;28;20055;-68
2022/07/03 09:28:59;;;;;;;5.65;2.70;;;;;;;26.95;37.05;99792.38;4969848;28;20074;-68
2022/07/03 09:31:32;;;;;;;7.35;2.92;;;;;;;27.72;36.37;99796.78;4962468;28;20058;-69
2022/07/03 09:34:00;;;;;;;9.57;2.83;;;;;;;28.54;34.17;99796.63;4968418;28;20146;-68
2022/07/03 09:36:41;;;;;;;8.60;3.03;;;;;;;29.02;32.91;99791.47;4970201;28;20061;-67
2022/07/03 09:39:15;;;;;;;5.38;2.78;;;;;;;29.53;32.52;99791.25;4970083;28;20046;-68
2022/07/03 09:41:52;;;;;;;15.65;2.85;;;;;;;30.12;31.75;99794.53;4970420;28;20134;-68
2022/07/03 09:44:35;;;;;;;4.97;3.05;;;;;;;30.44;30.81;99787.56;4961989;28;20050;-67
2022/07/03 09:47:17;;;;;;;6.28;3.05;;;;;;;30.66;30.44;99796.41;4965962;28;20053;-66
2022/07/03 09:49:54;;;;;;;2.65;2.35;;;;;;;30.94;30.28;99792.69;4969718;28;20473;-67
2022/07/03 09:52:45;;;;;;;4.38;2.38;;;;;;;31.14;30.04;99792.75;4970488;28;20058;-66
2022/07/03 09:55:17;;;;;;;4.88;2.88;;;;;;;31.07;29.30;99789.16;4950714;28;20057;-66
2022/07/03 09:57:47;;;;;;;3.70;2.63;;;;;;;31.15;29.61;99791.69;4963284;28;20123;-68
2022/07/03 10:00:19;;;;;;;4.50;2.28;;;;;;;31.28;29.59;99788.94;4947931;28;20054;-66
2022/07/03 10:03:04;;;;;;;3.97;2.30;;;;;;;31.94;28.99;99788.03;4947970;28;20077;-66
2022/07/03 10:05:31;;;;;;;6.88;2.70;;;;;;;31.76;28.90;99794.16;4947758;28;20074;-66
2022/07/03 10:08:05;;;;;;;4.88;2.55;;;;;;;31.54;29.30;99792.72;4946981;28;20058;-68
2022/07/03 10:10:36;;;;;;;6.72;3.42;;;;;;;31.83;29.13;99794.13;4947705;28;20059;-67
2022/07/03 10:13:06;;;;;;;3.25;2.00;;;;;;;32.02;28.33;99786.94;4947673;28;20051;-67
2022/07/03 10:15:40;;;;;;;6.00;2.35;;;;;;;32.09;28.65;99790.50;4947848;28;20051;-67
2022/07/03 10:18:09;;;;;;;7.15;3.15;;;;;;;32.04;28.30;99793.88;4947078;28;20047;-67
2022/07/03 10:20:39;;;;;;;3.63;2.17;;;;;;;32.17;27.96;99793.00;4947356;28;20047;-67
2022/07/03 10:23:05;;;;;;;5.18;2.50;;;;;;;32.24;28.23;99798.41;4947464;28;20051;-67
2022/07/03 10:25:32;;;;;;;5.47;2.13;;;;;;;32.32;27.87;99800.91;4947922;28;20063;-66
2022/07/03 10:28:00;;;;;;;7.70;2.80;;;;;;;32.27;27.58;99795.25;4946860;29;20047;-66
2022/07/03 10:30:27;;;;;;;6.90;2.60;;;;;;;32.05;28.14;99787.38;4947832;29;20070;-66
2022/07/03 10:32:55;;;;;;;2.63;2.20;;;;;;;31.97;28.42;99792.22;4947370;29;20507;-67
2022/07/03 10:35:27;;;;;;;3.05;2.00;;;;;;;31.92;28.49;99789.28;4947568;29;20147;-67
2022/07/03 10:38:19;;;;;;;3.95;2.25;;;;;;;32.18;27.80;99796.56;4946558;29;20053;-67
2022/07/03 10:46:27;;;;;;;4.45;2.13;;;;;;;32.01;28.35;99798.94;4966690;28;20084;-67
2022/07/03 10:48:58;;;;;;;2.78;1.85;;;;;;;32.25;28.12;99798.19;4965570;28;20054;-67
2022/07/03 10:51:28;;;;;;;4.50;2.03;;;;;;;32.28;27.59;99800.47;4966952;28;20066;-66
2022/07/03 10:54:14;;;;;;;5.28;1.75;;;;;;;31.66;28.18;99804.66;4966248;28;20043;-68
2022/07/03 10:57:05;;;;;;;3.58;1.90;;;;;;;31.77;28.38;99801.25;4947655;29;20035;-66
2022/07/03 10:59:57;;;;;;;2.75;1.70;;;;;;;31.80;28.28;99795.41;4947644;29;20057;-68
2022/07/03 11:02:27;;;;;;;4.53;1.75;;;;;;;31.33;28.69;99793.75;4952078;28;20043;-67
2022/07/03 11:05:14;;;;;;;4.70;1.75;;;;;;;30.71;29.49;99802.06;4965877;28;20083;-67
2022/07/03 11:08:04;;;;;;;3.00;1.77;;;;;;;29.87;31.31;99794.22;4965663;28;20109;-68
2022/07/03 11:10:40;;;;;;;2.50;1.50;;;;;;;29.18;31.89;99801.22;4953276;28;20055;-68
2022/07/03 11:13:09;;;;;;;4.50;1.67;;;;;;;28.67;32.69;99798.63;4966691;28;20039;-68
2022/07/03 11:15:40;;;;;;;3.00;1.70;;;;;;;28.27;33.35;99798.16;4966740;28;20485;-67
2022/07/03 11:18:28;;;;;;;3.55;1.95;;;;;;;27.76;34.72;99790.81;4965921;28;20053;-67
2022/07/03 11:21:23;;;;;;;3.95;2.30;;;;;;;27.27;35.56;99790.47;4957911;28;20082;-67
2022/07/03 11:24:26;;;;;;;1.70;1.15;;;;;;;27.03;36.25;99794.22;4965659;28;20465;-68
2022/07/03 11:27:26;;;;;;;2.47;1.58;;;;;;;26.83;36.39;99797.41;4965803;28;20046;-67
2022/07/03 11:29:59;;;;;;;6.65;2.33;;;;;;;26.84;36.64;99787.41;4965502;28;20051;-67
2022/07/03 11:32:50;;;;;;;2.30;1.63;;;;;;;26.84;37.04;99779.31;4965489;28;20763;-67
2022/07/03 11:35:46;;;;;;;4.03;2.05;;;;;;;26.60;37.19;99783.03;4965381;28;20865;-67
2022/07/03 11:38:15;;;;;;;3.33;1.40;;;;;;;26.44;37.69;99783.94;4964191;28;20046;-66
2022/07/03 11:40:46;;;;;;;3.78;1.80;;;;;;;26.51;37.38;99787.63;4965201;28;20043;-66
2022/07/03 11:43:12;;;;;;;2.17;1.30;;;;;;;26.44;37.17;99781.25;4964899;28;20054;-66
2022/07/03 11:45:40;;;;;;;3.42;1.83;;;;;;;26.38;37.13;99782.78;4964572;28;20047;-67
2022/07/03 11:48:09;;;;;;;6.22;1.88;;;;;;;26.33;37.49;99786.00;4964264;28;20058;-66
2022/07/03 11:50:40;;;;;;;3.78;1.70;;;;;;;26.22;38.17;99780.19;4959846;28;20498;-66
2022/07/03 11:53:26;;;;;;;3.78;1.65;;;;;;;26.32;37.50;99776.22;4946985;28;20106;-67
2022/07/03 11:55:57;;;;;;;3.97;1.55;;;;;;;26.31;38.07;99771.00;4947049;28;20509;-67
2022/07/03 11:58:25;;;;;;;4.10;1.65;;;;;;;26.43;37.87;99774.13;4945859;28;20051;-67
2022/07/03 12:00:52;;;;;;;3.60;1.95;;;;;;;26.45;38.20;99772.09;4945773;28;20786;-67
2022/07/03 12:03:25;;;;;;;2.55;1.63;;;;;;;26.27;38.79;99777.78;4945615;28;20145;-67